createdAt,value
2023-04-06T00:04:30.537Z,99845.44
2023-04-06T00:09:35.806Z,99845.44
2023-04-06T00:14:39.413Z,99852.00
2023-04-06T00:19:43.029Z,99847.56
2023-04-06T00:24:47.868Z,99859.47
2023-04-06T00:29:51.413Z,99858.53
2023-04-06T00:34:54.890Z,99857.44
2023-04-06T00:39:59.922Z,99854.06
2023-04-06T00:45:04.161Z,99854.72
2023-04-06T00:50:09.132Z,99858.03
2023-04-06T00:55:14.094Z,99853.91
2023-04-06T01:00:18.617Z,99851.03
2023-04-06T01:05:22.318Z,99846.66
2023-04-06T01:10:28.054Z,99848.38
2023-04-06T01:15:32.426Z,99844.81
2023-04-06T01:20:36.020Z,99835.28
2023-04-06T01:25:40.907Z,99840.59
2023-04-06T01:30:44.090Z,99840.75
2023-04-06T01:35:47.617Z,99839.66
2023-04-06T01:40:52.566Z,99833.97
2023-04-06T01:45:56.621Z,99836.53
2023-04-06T01:51:00.335Z,99832.31
2023-04-06T01:56:05.640Z,99840.09
2023-04-06T02:01:09.198Z,99825.47
2023-04-06T02:06:12.792Z,99841.81
2023-04-06T02:11:17.862Z,99844.34
2023-04-06T02:16:21.433Z,99853.66
2023-04-06T02:21:25.251Z,99842.63
2023-04-06T02:26:30.173Z,99852.00
2023-04-06T02:31:33.419Z,99852.91
2023-04-06T02:36:36.903Z,99845.75
2023-04-06T02:41:42.289Z,99850.97
2023-04-06T02:46:45.782Z,99858.78
2023-04-06T02:51:49.400Z,99855.13
2023-04-06T02:56:54.725Z,99862.84
2023-04-06T03:01:58.294Z,99871.59
2023-04-06T03:07:01.764Z,99872.41
2023-04-06T03:12:09.276Z,99889.75
2023-04-06T03:17:13.541Z,99880.47
2023-04-06T03:22:17.249Z,99886.97
2023-04-06T03:27:22.137Z,99901.22
2023-04-06T03:32:25.359Z,99905.91
2023-04-06T03:37:28.918Z,99908.75
2023-04-06T03:42:34.045Z,99909.03
2023-04-06T03:47:37.589Z,99901.56
2023-04-06T03:52:41.154Z,99913.94
2023-04-06T03:57:46.053Z,99914.69
2023-04-06T04:02:49.274Z,99918.34
2023-04-06T04:07:52.782Z,99922.41
2023-04-06T04:12:57.661Z,99927.09
2023-04-06T04:18:00.841Z,99922.81
2023-04-06T04:23:04.466Z,99922.38
2023-04-06T04:28:09.442Z,99915.59
2023-04-06T04:33:12.987Z,99930.63
2023-04-06T04:38:16.647Z,99931.78
2023-04-06T04:43:21.594Z,99941.94
2023-04-06T04:48:24.817Z,99940.09
2023-04-06T04:53:28.292Z,99945.09
2023-04-06T04:58:33.174Z,99945.16
2023-04-06T05:03:36.914Z,99945.25
2023-04-06T05:08:40.723Z,99937.16
2023-04-06T05:13:45.842Z,99937.88
2023-04-06T05:18:50.315Z,99935.00
2023-04-06T05:23:55.083Z,99938.84
2023-04-06T05:29:00.108Z,99942.66
2023-04-06T05:34:03.726Z,99944.41
2023-04-06T05:39:07.460Z,99942.00
2023-04-06T05:44:12.865Z,99943.59
2023-04-06T05:49:16.514Z,99946.88
2023-04-06T05:54:20.012Z,99943.97
2023-04-06T05:59:25.489Z,99952.09
2023-04-06T06:04:29.051Z,99951.50
2023-04-06T06:09:32.536Z,99947.66
2023-04-06T06:14:37.488Z,99945.63
2023-04-06T06:19:41.010Z,99945.22
2023-04-06T06:24:44.550Z,99944.97
2023-04-06T06:29:49.445Z,99948.66
2023-04-06T06:34:52.960Z,99956.34
2023-04-06T06:39:56.445Z,99952.22
2023-04-06T06:45:01.829Z,99948.25
2023-04-06T06:50:08.634Z,99945.78
2023-04-06T06:55:13.233Z,99943.59
2023-04-06T07:00:18.621Z,99941.53
2023-04-06T07:05:31.155Z,99937.88
2023-04-06T07:10:34.695Z,99949.59
2023-04-06T07:15:38.531Z,99936.88
2023-04-06T07:20:43.464Z,99931.97
2023-04-06T07:25:47.437Z,99923.97
2023-04-06T07:30:50.932Z,99926.00
2023-04-06T07:35:56.128Z,99923.94
2023-04-06T07:40:59.748Z,99927.41
2023-04-06T07:46:03.370Z,99925.47
2023-04-06T07:51:11.816Z,99928.00
2023-04-06T07:56:16.538Z,99925.28
2023-04-06T08:01:20.215Z,99927.38
2023-04-06T08:06:25.237Z,99926.13
2023-04-06T08:11:28.982Z,99922.13
2023-04-06T08:16:32.482Z,99919.78
2023-04-06T08:21:37.691Z,99911.91
2023-04-06T08:26:41.342Z,99904.97
2023-04-06T08:31:44.915Z,99913.13
2023-04-06T08:36:49.898Z,99903.41
2023-04-06T08:41:54.258Z,99901.69
2023-04-06T08:46:57.933Z,99895.50
2023-04-06T08:52:03.344Z,99896.03
2023-04-06T08:57:07.703Z,99881.97
2023-04-06T09:02:18.390Z,99894.63
2023-04-06T09:07:23.684Z,99877.03
2023-04-06T09:12:28.798Z,99877.00
2023-04-06T09:17:35.062Z,99880.13
2023-04-06T09:22:41.335Z,99884.63
2023-04-06T09:27:45.657Z,99873.56
2023-04-06T09:32:51.040Z,99894.03
2023-04-06T09:37:56.550Z,99870.81
2023-04-06T09:43:00.566Z,99871.91
2023-04-06T09:48:05.687Z,99864.97
2023-04-06T09:53:10.997Z,99866.59
2023-04-06T09:58:20.386Z,99867.81
2023-04-06T10:03:38.656Z,99893.13
2023-04-06T10:08:45.595Z,99868.97
2023-04-06T10:13:51.057Z,99867.50
2023-04-06T10:19:00.498Z,99862.19
2023-04-06T10:24:13.273Z,99864.25
2023-04-06T10:29:16.985Z,99863.88
2023-04-06T10:34:20.650Z,99873.03
2023-04-06T10:39:29.178Z,99857.75
2023-04-06T10:44:32.749Z,99861.88
2023-04-06T10:49:36.321Z,99856.63
2023-04-06T10:54:45.247Z,99858.72
2023-04-06T10:59:48.897Z,99847.06
2023-04-06T11:04:59.388Z,99857.91
2023-04-06T11:10:15.487Z,99860.31
2023-04-06T11:15:21.426Z,99857.16
2023-04-06T11:20:25.141Z,99852.19
2023-04-06T11:25:32.389Z,99860.19
2023-04-06T11:30:35.944Z,99855.84
2023-04-06T11:35:40.005Z,99857.81
2023-04-06T11:40:45.311Z,99846.25
2023-04-06T11:45:49.170Z,99854.97
2023-04-06T11:50:59.024Z,99859.22
2023-04-06T11:56:07.325Z,99841.81
2023-04-06T12:01:13.136Z,99851.91
2023-04-06T12:06:19.040Z,99826.94
2023-04-06T12:11:24.373Z,99850.56
2023-04-06T12:16:27.878Z,99845.41
2023-04-06T12:21:32.148Z,99821.09
2023-04-06T12:26:38.266Z,99833.13
2023-04-06T12:31:44.323Z,99828.28
2023-04-06T12:36:47.964Z,99824.88
2023-04-06T12:41:53.233Z,99829.25
2023-04-06T12:46:57.479Z,99812.84
2023-04-06T12:52:01.063Z,99833.44
2023-04-06T12:57:06.148Z,99817.69
2023-04-06T13:02:09.716Z,99834.16
2023-04-06T13:07:13.464Z,99824.66
2023-04-06T13:12:18.643Z,99828.88
2023-04-06T13:17:22.264Z,99813.38
2023-04-06T13:22:25.866Z,99809.06
2023-04-06T13:27:34.894Z,99814.19
2023-04-06T13:32:38.767Z,99808.19
2023-04-06T13:37:42.476Z,99802.94
2023-04-06T13:42:47.536Z,99801.31
2023-04-06T13:47:51.033Z,99805.50
2023-04-06T13:52:54.736Z,99804.66
2023-04-06T13:57:59.689Z,99803.97
2023-04-06T14:03:03.342Z,99798.97
2023-04-06T14:08:07.064Z,99803.38
2023-04-06T14:13:12.932Z,99806.19
2023-04-06T14:18:16.488Z,99804.25
2023-04-06T14:23:19.931Z,99799.94
2023-04-06T14:28:24.880Z,99808.69
2023-04-06T14:33:28.599Z,99798.47
2023-04-06T14:38:32.327Z,99806.44
2023-04-06T14:43:37.255Z,99808.28
2023-04-06T14:48:40.885Z,99809.22
2023-04-06T14:53:44.624Z,99814.56
2023-04-06T14:58:49.619Z,99812.81
2023-04-06T15:03:53.238Z,99802.44
2023-04-06T15:08:57.101Z,99815.50
2023-04-06T15:14:03.157Z,99805.09
2023-04-06T15:19:06.684Z,99812.94
2023-04-06T15:24:10.751Z,99837.47
2023-04-06T15:29:15.613Z,99832.44
2023-04-06T15:34:19.285Z,99827.31
2023-04-06T15:39:22.725Z,99841.31
2023-04-06T15:44:27.655Z,99843.13
2023-04-06T15:49:31.470Z,99854.44
2023-04-06T15:54:36.699Z,99818.00
2023-04-06T15:59:41.643Z,99853.59
2023-04-06T16:04:45.273Z,99850.13
2023-04-06T16:09:48.712Z,99866.59
2023-04-06T16:14:53.671Z,99862.25
2023-04-06T16:19:57.300Z,99870.88
2023-04-06T16:25:00.905Z,99869.94
2023-04-06T16:30:06.948Z,99885.50
2023-04-06T16:35:10.953Z,99888.91
2023-04-06T16:40:15.204Z,99904.38
2023-04-06T16:45:20.313Z,99899.97
2023-04-06T16:50:23.792Z,99898.94
2023-04-06T16:55:27.364Z,99902.34
2023-04-06T17:00:32.215Z,99916.97
2023-04-06T17:05:36.078Z,99928.75
2023-04-06T17:10:46.362Z,99929.63
2023-04-06T17:16:03.823Z,99933.81
2023-04-06T17:21:09.293Z,99932.75
2023-04-06T17:26:12.749Z,99943.84
2023-04-06T17:31:17.770Z,99952.44
2023-04-06T17:36:21.964Z,99948.84
2023-04-06T17:41:26.727Z,99925.94
2023-04-06T17:46:31.634Z,99960.56
2023-04-06T17:51:35.105Z,99962.03
2023-04-06T17:56:38.639Z,99967.06
2023-04-06T18:01:43.582Z,99973.88
2023-04-06T18:06:47.346Z,99977.94
2023-04-06T18:11:50.973Z,99974.34
2023-04-06T18:16:55.813Z,99982.72
2023-04-06T18:21:58.971Z,99985.91
2023-04-06T18:27:02.730Z,99985.69
2023-04-06T18:32:08.180Z,99989.97
2023-04-06T18:37:11.658Z,99986.34
2023-04-06T18:42:15.161Z,99997.22
2023-04-06T18:47:20.172Z,99997.09
2023-04-06T18:52:24.445Z,99996.94
2023-04-06T18:57:28.038Z,99993.13
2023-04-06T19:02:33.083Z,99996.75
2023-04-06T19:07:37.697Z,100012.75
2023-04-06T19:12:41.461Z,99973.31
2023-04-06T19:17:47.764Z,99995.13
2023-04-06T19:22:51.347Z,99992.25
2023-04-06T19:27:54.932Z,100006.63
2023-04-06T19:32:59.954Z,100003.91
2023-04-06T19:38:03.485Z,99996.59
2023-04-06T19:43:06.932Z,100005.84
2023-04-06T19:48:11.764Z,100015.00
2023-04-06T19:53:14.992Z,100012.38
2023-04-06T19:58:18.711Z,100010.25
2023-04-06T20:03:23.730Z,100009.31
2023-04-06T20:08:27.268Z,100009.00
2023-04-06T20:13:31.459Z,100014.75
2023-04-06T20:18:37.220Z,100011.97
2023-04-06T20:23:40.696Z,100011.88
2023-04-06T20:28:44.459Z,100015.97
2023-04-06T20:33:49.410Z,100011.47
2023-04-06T20:38:52.628Z,100020.75
2023-04-06T20:43:56.066Z,100019.53
2023-04-06T20:49:01.015Z,100020.38
2023-04-06T20:54:04.512Z,100011.53
2023-04-06T20:59:07.975Z,100005.91
2023-04-06T21:04:12.978Z,100013.00
2023-04-06T21:09:16.978Z,100014.31
2023-04-06T21:14:21.280Z,100015.94
2023-04-06T21:19:27.713Z,100032.22
2023-04-06T21:24:31.173Z,100037.13
2023-04-06T21:29:34.650Z,100029.19
2023-04-06T21:34:39.560Z,100017.47
2023-04-06T21:39:43.241Z,100031.25
2023-04-06T21:44:46.821Z,100020.59
2023-04-06T21:49:51.852Z,100030.03
2023-04-06T21:54:55.075Z,100026.50
2023-04-06T21:59:58.565Z,100026.81
2023-04-06T22:05:03.633Z,100031.06
2023-04-06T22:10:07.957Z,100023.88
2023-04-06T22:15:13.239Z,100028.97
2023-04-06T22:20:18.245Z,100032.16
2023-04-06T22:25:21.429Z,100027.66
2023-04-06T22:30:25.111Z,100023.19
2023-04-06T22:35:30.152Z,100014.50
2023-04-06T22:40:33.644Z,100021.25
2023-04-06T22:45:37.154Z,100021.16
2023-04-06T22:50:42.087Z,100027.16
2023-04-06T22:55:45.834Z,100019.72
2023-04-06T23:00:49.216Z,100023.66
2023-04-06T23:05:54.098Z,100020.81
2023-04-06T23:10:57.289Z,100023.88
2023-04-06T23:16:00.788Z,100032.97
2023-04-06T23:21:07.908Z,100013.16
2023-04-06T23:26:11.598Z,100019.69
2023-04-06T23:31:15.106Z,100018.88
2023-04-06T23:36:19.960Z,100021.28
2023-04-06T23:41:23.323Z,100010.06
2023-04-06T23:46:26.866Z,100011.44
2023-04-06T23:51:31.954Z,100006.94
2023-04-06T23:56:35.656Z,100004.16
